sensor_id;sensor_type;location;lat;lon;timestamp;temperature;humidity
20831;DHT22;10576;53.556;9.868;2023-08-12T00:00:19;19.20;99.90
20831;DHT22;10576;53.556;9.868;2023-08-12T00:02:45;19.20;99.90
20831;DHT22;10576;53.556;9.868;2023-08-12T00:05:12;19.20;99.90
20831;DHT22;10576;53.556;9.868;2023-08-12T00:07:39;19.20;99.90
20831;DHT22;10576;53.556;9.868;2023-08-12T00:10:10;19.20;99.90
20831;DHT22;10576;53.556;9.868;2023-08-12T00:12:36;19.20;99.90
20831;DHT22;10576;53.556;9.868;2023-08-12T00:15:03;19.20;99.90
20831;DHT22;10576;53.556;9.868;2023-08-12T00:17:30;19.10;99.90
20831;DHT22;10576;53.556;9.868;2023-08-12T00:19:55;19.20;99.90
20831;DHT22;10576;53.556;9.868;2023-08-12T00:22:22;19.20;99.90
20831;DHT22;10576;53.556;9.868;2023-08-12T00:24:48;19.20;99.90
20831;DHT22;10576;53.556;9.868;2023-08-12T00:27:13;19.10;99.90
20831;DHT22;10576;53.556;9.868;2023-08-12T00:29:39;19.10;99.90
20831;DHT22;10576;53.556;9.868;2023-08-12T00:32:05;19.10;99.90
20831;DHT22;10576;53.556;9.868;2023-08-12T00:34:30;19.10;99.90
20831;DHT22;10576;53.556;9.868;2023-08-12T00:36:56;19.10;99.90
20831;DHT22;10576;53.556;9.868;2023-08-12T00:39:21;19.00;99.90
20831;DHT22;10576;53.556;9.868;2023-08-12T00:41:48;19.00;99.90
20831;DHT22;10576;53.556;9.868;2023-08-12T00:44:13;19.00;99.90
20831;DHT22;10576;53.556;9.868;2023-08-12T00:46:41;19.00;99.90
20831;DHT22;10576;53.556;9.868;2023-08-12T00:49:06;19.00;99.90
20831;DHT22;10576;53.556;9.868;2023-08-12T00:51:32;19.00;99.90
20831;DHT22;10576;53.556;9.868;2023-08-12T00:53:59;19.00;99.90
20831;DHT22;10576;53.556;9.868;2023-08-12T00:56:26;19.00;99.90
20831;DHT22;10576;53.556;9.868;2023-08-12T00:58:52;19.00;99.90
20831;DHT22;10576;53.556;9.868;2023-08-12T01:01:19;19.00;99.90
20831;DHT22;10576;53.556;9.868;2023-08-12T01:03:45;19.00;99.90
20831;DHT22;10576;53.556;9.868;2023-08-12T01:06:12;18.90;99.90
20831;DHT22;10576;53.556;9.868;2023-08-12T01:08:38;18.90;99.90
20831;DHT22;10576;53.556;9.868;2023-08-12T01:16:36;18.80;99.90
20831;DHT22;10576;53.556;9.868;2023-08-12T01:19:05;18.80;99.90
20831;DHT22;10576;53.556;9.868;2023-08-12T01:21:33;18.80;99.90
20831;DHT22;10576;53.556;9.868;2023-08-12T01:24:01;18.70;99.90
20831;DHT22;10576;53.556;9.868;2023-08-12T01:26:27;18.80;99.90
20831;DHT22;10576;53.556;9.868;2023-08-12T01:28:53;18.70;99.90
20831;DHT22;10576;53.556;9.868;2023-08-12T01:31:26;18.70;99.90
20831;DHT22;10576;53.556;9.868;2023-08-12T01:34:06;18.60;99.90
20831;DHT22;10576;53.556;9.868;2023-08-12T01:36:35;18.60;99.90
20831;DHT22;10576;53.556;9.868;2023-08-12T01:39:01;18.60;99.90
20831;DHT22;10576;53.556;9.868;2023-08-12T01:41:29;18.60;99.90
20831;DHT22;10576;53.556;9.868;2023-08-12T01:43:55;18.50;99.90
20831;DHT22;10576;53.556;9.868;2023-08-12T01:46:21;18.50;99.90
20831;DHT22;10576;53.556;9.868;2023-08-12T01:48:47;18.50;99.90
20831;DHT22;10576;53.556;9.868;2023-08-12T01:51:12;18.40;99.90
20831;DHT22;10576;53.556;9.868;2023-08-12T01:53:38;18.50;99.90
20831;DHT22;10576;53.556;9.868;2023-08-12T01:56:04;18.40;99.90
20831;DHT22;10576;53.556;9.868;2023-08-12T01:58:29;18.40;99.90
20831;DHT22;10576;53.556;9.868;2023-08-12T02:00:55;18.30;99.90
20831;DHT22;10576;53.556;9.868;2023-08-12T02:03:20;18.30;99.90
20831;DHT22;10576;53.556;9.868;2023-08-12T02:05:46;18.30;99.90
20831;DHT22;10576;53.556;9.868;2023-08-12T02:08:13;18.30;99.90
20831;DHT22;10576;53.556;9.868;2023-08-12T02:10:38;18.30;99.90
20831;DHT22;10576;53.556;9.868;2023-08-12T02:13:04;18.30;99.90
20831;DHT22;10576;53.556;9.868;2023-08-12T02:15:30;18.30;99.90
20831;DHT22;10576;53.556;9.868;2023-08-12T02:17:55;18.20;99.90
20831;DHT22;10576;53.556;9.868;2023-08-12T02:20:21;18.20;99.90
20831;DHT22;10576;53.556;9.868;2023-08-12T02:22:47;18.20;99.90
20831;DHT22;10576;53.556;9.868;2023-08-12T02:25:13;18.20;99.90
20831;DHT22;10576;53.556;9.868;2023-08-12T02:27:38;18.10;99.90
20831;DHT22;10576;53.556;9.868;2023-08-12T02:30:05;18.10;99.90
20831;DHT22;10576;53.556;9.868;2023-08-12T02:32:30;18.10;99.90
20831;DHT22;10576;53.556;9.868;2023-08-12T02:34:56;18.10;99.90
20831;DHT22;10576;53.556;9.868;2023-08-12T02:37:22;18.10;99.90
20831;DHT22;10576;53.556;9.868;2023-08-12T02:39:47;18.10;99.90
20831;DHT22;10576;53.556;9.868;2023-08-12T02:42:13;18.10;99.90
20831;DHT22;10576;53.556;9.868;2023-08-12T02:44:38;18.00;99.90
20831;DHT22;10576;53.556;9.868;2023-08-12T02:47:04;18.00;99.90
20831;DHT22;10576;53.556;9.868;2023-08-12T02:49:30;18.00;99.90
20831;DHT22;10576;53.556;9.868;2023-08-12T02:51:55;18.00;99.90
20831;DHT22;10576;53.556;9.868;2023-08-12T02:54:21;18.10;99.90
20831;DHT22;10576;53.556;9.868;2023-08-12T02:56:47;18.10;99.90
20831;DHT22;10576;53.556;9.868;2023-08-12T02:59:12;18.10;99.90
20831;DHT22;10576;53.556;9.868;2023-08-12T03:01:41;18.00;99.90
20831;DHT22;10576;53.556;9.868;2023-08-12T03:04:07;18.00;99.90
20831;DHT22;10576;53.556;9.868;2023-08-12T03:06:32;18.00;99.90
20831;DHT22;10576;53.556;9.868;2023-08-12T03:08:58;18.00;99.90
20831;DHT22;10576;53.556;9.868;2023-08-12T03:11:24;17.90;99.90
20831;DHT22;10576;53.556;9.868;2023-08-12T03:13:50;17.90;99.90
20831;DHT22;10576;53.556;9.868;2023-08-12T03:16:15;17.90;99.90
20831;DHT22;10576;53.556;9.868;2023-08-12T03:18:41;17.90;99.90
20831;DHT22;10576;53.556;9.868;2023-08-12T03:21:10;17.90;99.90
20831;DHT22;10576;53.556;9.868;2023-08-12T03:23:36;17.90;99.90
20831;DHT22;10576;53.556;9.868;2023-08-12T03:26:02;17.80;99.90
20831;DHT22;10576;53.556;9.868;2023-08-12T03:28:29;17.80;99.90
20831;DHT22;10576;53.556;9.868;2023-08-12T03:30:54;17.80;99.90
20831;DHT22;10576;53.556;9.868;2023-08-12T03:33:20;17.80;99.90
20831;DHT22;10576;53.556;9.868;2023-08-12T03:35:47;17.80;99.90
20831;DHT22;10576;53.556;9.868;2023-08-12T03:38:13;17.80;99.90
20831;DHT22;10576;53.556;9.868;2023-08-12T03:40:39;17.70;99.90
20831;DHT22;10576;53.556;9.868;2023-08-12T03:43:05;17.70;99.90
20831;DHT22;10576;53.556;9.868;2023-08-12T03:45:30;17.70;99.90
20831;DHT22;10576;53.556;9.868;2023-08-12T03:47:56;17.60;99.90
20831;DHT22;10576;53.556;9.868;2023-08-12T03:50:22;17.60;99.90
20831;DHT22;10576;53.556;9.868;2023-08-12T03:52:47;17.60;99.90
20831;DHT22;10576;53.556;9.868;2023-08-12T03:55:13;17.60;99.90
20831;DHT22;10576;53.556;9.868;2023-08-12T03:57:39;17.50;99.90
20831;DHT22;10576;53.556;9.868;2023-08-12T04:00:05;17.50;99.90
20831;DHT22;10576;53.556;9.868;2023-08-12T04:02:33;17.50;99.90
20831;DHT22;10576;53.556;9.868;2023-08-12T04:04:58;17.50;99.90
20831;DHT22;10576;53.556;9.868;2023-08-12T04:07:24;17.60;99.90
20831;DHT22;10576;53.556;9.868;2023-08-12T04:09:50;17.50;99.90
20831;DHT22;10576;53.556;9.868;2023-08-12T04:12:15;17.50;99.90
20831;DHT22;10576;53.556;9.868;2023-08-12T04:14:41;17.50;99.90
20831;DHT22;10576;53.556;9.868;2023-08-12T04:17:07;17.60;99.90
20831;DHT22;10576;53.556;9.868;2023-08-12T04:19:32;17.60;99.90
20831;DHT22;10576;53.556;9.868;2023-08-12T04:21:58;17.60;99.90
20831;DHT22;10576;53.556;9.868;2023-08-12T04:24:23;17.60;99.90
20831;DHT22;10576;53.556;9.868;2023-08-12T04:26:49;17.60;99.90
20831;DHT22;10576;53.556;9.868;2023-08-12T04:29:15;17.60;99.90
20831;DHT22;10576;53.556;9.868;2023-08-12T04:31:41;17.60;99.90
20831;DHT22;10576;53.556;9.868;2023-08-12T04:34:06;17.60;99.90
20831;DHT22;10576;53.556;9.868;2023-08-12T04:36:32;17.60;99.90
20831;DHT22;10576;53.556;9.868;2023-08-12T04:38:58;17.60;99.90
20831;DHT22;10576;53.556;9.868;2023-08-12T04:41:23;17.60;99.90
20831;DHT22;10576;53.556;9.868;2023-08-12T04:43:49;17.70;99.90
20831;DHT22;10576;53.556;9.868;2023-08-12T04:46:15;17.70;99.90
20831;DHT22;10576;53.556;9.868;2023-08-12T04:48:40;17.70;99.90
20831;DHT22;10576;53.556;9.868;2023-08-12T04:51:06;17.70;99.90
20831;DHT22;10576;53.556;9.868;2023-08-12T04:53:32;17.70;99.90
20831;DHT22;10576;53.556;9.868;2023-08-12T04:55:58;17.80;99.90
20831;DHT22;10576;53.556;9.868;2023-08-12T04:58:23;17.80;99.90
20831;DHT22;10576;53.556;9.868;2023-08-12T05:00:50;17.80;99.90
20831;DHT22;10576;53.556;9.868;2023-08-12T05:03:17;17.80;99.90
20831;DHT22;10576;53.556;9.868;2023-08-12T05:05:43;17.80;99.90
20831;DHT22;10576;53.556;9.868;2023-08-12T05:08:09;17.80;99.90
20831;DHT22;10576;53.556;9.868;2023-08-12T05:10:34;17.80;99.90
20831;DHT22;10576;53.556;9.868;2023-08-12T05:13:00;17.90;99.90
20831;DHT22;10576;53.556;9.868;2023-08-12T05:15:25;17.90;99.90
20831;DHT22;10576;53.556;9.868;2023-08-12T05:17:51;17.90;99.90
20831;DHT22;10576;53.556;9.868;2023-08-12T05:20:17;17.90;99.90
20831;DHT22;10576;53.556;9.868;2023-08-12T05:22:42;17.90;99.90
20831;DHT22;10576;53.556;9.868;2023-08-12T05:25:08;18.00;99.90
20831;DHT22;10576;53.556;9.868;2023-08-12T05:27:34;17.90;99.90
20831;DHT22;10576;53.556;9.868;2023-08-12T05:29:59;17.90;99.90
20831;DHT22;10576;53.556;9.868;2023-08-12T05:32:25;18.00;99.90
20831;DHT22;10576;53.556;9.868;2023-08-12T05:34:55;17.90;99.90
20831;DHT22;10576;53.556;9.868;2023-08-12T05:37:20;17.90;99.90
20831;DHT22;10576;53.556;9.868;2023-08-12T05:39:46;18.00;99.90
20831;DHT22;10576;53.556;9.868;2023-08-12T05:42:12;18.00;99.90
20831;DHT22;10576;53.556;9.868;2023-08-12T05:44:37;18.00;99.90
20831;DHT22;10576;53.556;9.868;2023-08-12T05:47:03;18.00;99.90
20831;DHT22;10576;53.556;9.868;2023-08-12T05:49:29;18.00;99.90
20831;DHT22;10576;53.556;9.868;2023-08-12T05:51:55;18.00;99.90
20831;DHT22;10576;53.556;9.868;2023-08-12T05:54:21;18.00;99.90
20831;DHT22;10576;53.556;9.868;2023-08-12T05:56:46;18.00;99.90
20831;DHT22;10576;53.556;9.868;2023-08-12T05:59:12;18.10;99.90
20831;DHT22;10576;53.556;9.868;2023-08-12T06:01:38;18.10;99.90
20831;DHT22;10576;53.556;9.868;2023-08-12T06:04:03;18.10;99.90
20831;DHT22;10576;53.556;9.868;2023-08-12T06:06:29;18.10;99.90
20831;DHT22;10576;53.556;9.868;2023-08-12T06:08:55;18.10;99.90
20831;DHT22;10576;53.556;9.868;2023-08-12T06:11:20;18.10;99.90
20831;DHT22;10576;53.556;9.868;2023-08-12T06:13:46;18.20;99.90
20831;DHT22;10576;53.556;9.868;2023-08-12T06:16:11;18.20;99.90
20831;DHT22;10576;53.556;9.868;2023-08-12T06:18:37;18.20;99.90
20831;DHT22;10576;53.556;9.868;2023-08-12T06:21:03;18.20;99.90
20831;DHT22;10576;53.556;9.868;2023-08-12T06:23:28;18.20;99.90
20831;DHT22;10576;53.556;9.868;2023-08-12T06:25:55;18.20;99.90
20831;DHT22;10576;53.556;9.868;2023-08-12T06:28:21;18.20;99.90
20831;DHT22;10576;53.556;9.868;2023-08-12T06:30:47;18.20;99.90
20831;DHT22;10576;53.556;9.868;2023-08-12T06:33:14;18.30;99.90
20831;DHT22;10576;53.556;9.868;2023-08-12T06:35:41;18.30;99.90
20831;DHT22;10576;53.556;9.868;2023-08-12T06:38:06;18.30;99.90
20831;DHT22;10576;53.556;9.868;2023-08-12T06:40:32;18.30;99.90
20831;DHT22;10576;53.556;9.868;2023-08-12T06:42:58;18.30;99.90
20831;DHT22;10576;53.556;9.868;2023-08-12T06:45:23;18.30;99.90
20831;DHT22;10576;53.556;9.868;2023-08-12T06:47:49;18.40;99.90
20831;DHT22;10576;53.556;9.868;2023-08-12T06:50:15;18.40;99.90
20831;DHT22;10576;53.556;9.868;2023-08-12T06:52:40;18.40;99.90
20831;DHT22;10576;53.556;9.868;2023-08-12T06:55:06;18.50;99.90
20831;DHT22;10576;53.556;9.868;2023-08-12T06:57:32;18.60;99.90
20831;DHT22;10576;53.556;9.868;2023-08-12T06:59:58;18.70;99.90
20831;DHT22;10576;53.556;9.868;2023-08-12T07:02:23;18.60;99.90
20831;DHT22;10576;53.556;9.868;2023-08-12T07:04:49;18.70;99.90
20831;DHT22;10576;53.556;9.868;2023-08-12T07:07:14;18.80;99.90
20831;DHT22;10576;53.556;9.868;2023-08-12T07:09:40;19.00;99.90
20831;DHT22;10576;53.556;9.868;2023-08-12T07:12:06;18.90;99.90
20831;DHT22;10576;53.556;9.868;2023-08-12T07:14:32;19.10;99.90
20831;DHT22;10576;53.556;9.868;2023-08-12T07:16:57;19.10;99.90
20831;DHT22;10576;53.556;9.868;2023-08-12T07:19:23;19.20;99.90
20831;DHT22;10576;53.556;9.868;2023-08-12T07:21:49;19.30;99.90
20831;DHT22;10576;53.556;9.868;2023-08-12T07:24:14;19.30;99.90
20831;DHT22;10576;53.556;9.868;2023-08-12T07:26:40;19.40;99.90
20831;DHT22;10576;53.556;9.868;2023-08-12T07:29:06;19.40;99.90
20831;DHT22;10576;53.556;9.868;2023-08-12T07:31:31;19.50;99.90
20831;DHT22;10576;53.556;9.868;2023-08-12T07:33:57;19.50;99.90
20831;DHT22;10576;53.556;9.868;2023-08-12T07:36:23;19.60;99.90
20831;DHT22;10576;53.556;9.868;2023-08-12T07:38:48;19.70;99.90
20831;DHT22;10576;53.556;9.868;2023-08-12T07:41:14;19.80;99.90
20831;DHT22;10576;53.556;9.868;2023-08-12T07:43:40;19.80;99.90
20831;DHT22;10576;53.556;9.868;2023-08-12T07:46:05;19.90;99.90
20831;DHT22;10576;53.556;9.868;2023-08-12T07:48:31;19.90;99.90
20831;DHT22;10576;53.556;9.868;2023-08-12T07:50:57;20.10;99.90
20831;DHT22;10576;53.556;9.868;2023-08-12T07:53:23;20.10;99.90
20831;DHT22;10576;53.556;9.868;2023-08-12T07:55:49;20.20;99.90
20831;DHT22;10576;53.556;9.868;2023-08-12T07:58:14;20.30;99.90
20831;DHT22;10576;53.556;9.868;2023-08-12T08:00:40;20.30;99.90
20831;DHT22;10576;53.556;9.868;2023-08-12T08:03:06;20.30;99.90
20831;DHT22;10576;53.556;9.868;2023-08-12T08:05:31;20.40;99.90
20831;DHT22;10576;53.556;9.868;2023-08-12T08:07:57;20.50;99.90
20831;DHT22;10576;53.556;9.868;2023-08-12T08:10:23;20.40;99.90
20831;DHT22;10576;53.556;9.868;2023-08-12T08:12:48;20.40;99.90
20831;DHT22;10576;53.556;9.868;2023-08-12T08:15:14;20.50;99.90
20831;DHT22;10576;53.556;9.868;2023-08-12T08:17:40;20.50;99.90
20831;DHT22;10576;53.556;9.868;2023-08-12T08:20:06;20.60;99.90
20831;DHT22;10576;53.556;9.868;2023-08-12T08:22:32;20.60;99.90
20831;DHT22;10576;53.556;9.868;2023-08-12T08:24:58;20.70;99.90
20831;DHT22;10576;53.556;9.868;2023-08-12T08:27:24;20.90;99.90
20831;DHT22;10576;53.556;9.868;2023-08-12T08:29:50;21.10;99.90
20831;DHT22;10576;53.556;9.868;2023-08-12T08:32:15;21.10;99.90
20831;DHT22;10576;53.556;9.868;2023-08-12T08:34:42;21.10;99.90
20831;DHT22;10576;53.556;9.868;2023-08-12T08:37:08;21.20;99.90
20831;DHT22;10576;53.556;9.868;2023-08-12T08:39:33;21.10;99.90
20831;DHT22;10576;53.556;9.868;2023-08-12T08:41:59;21.00;99.90
20831;DHT22;10576;53.556;9.868;2023-08-12T08:44:29;21.00;99.90
20831;DHT22;10576;53.556;9.868;2023-08-12T08:46:55;21.00;99.90
20831;DHT22;10576;53.556;9.868;2023-08-12T08:49:22;21.00;99.90
20831;DHT22;10576;53.556;9.868;2023-08-12T08:51:48;21.00;99.90
20831;DHT22;10576;53.556;9.868;2023-08-12T08:54:15;21.00;99.90
20831;DHT22;10576;53.556;9.868;2023-08-12T08:56:41;21.00;99.90
20831;DHT22;10576;53.556;9.868;2023-08-12T08:59:07;21.10;99.90
20831;DHT22;10576;53.556;9.868;2023-08-12T09:01:35;21.10;99.90
20831;DHT22;10576;53.556;9.868;2023-08-12T09:04:03;21.10;99.90
20831;DHT22;10576;53.556;9.868;2023-08-12T09:06:29;21.10;99.90
20831;DHT22;10576;53.556;9.868;2023-08-12T09:08:56;21.00;99.90
20831;DHT22;10576;53.556;9.868;2023-08-12T09:11:23;21.10;99.90
20831;DHT22;10576;53.556;9.868;2023-08-12T09:13:49;21.10;99.90
20831;DHT22;10576;53.556;9.868;2023-08-12T09:16:15;21.00;99.90
20831;DHT22;10576;53.556;9.868;2023-08-12T09:18:43;20.90;99.90
20831;DHT22;10576;53.556;9.868;2023-08-12T09:21:10;21.30;99.90
20831;DHT22;10576;53.556;9.868;2023-08-12T09:23:38;20.90;99.90
20831;DHT22;10576;53.556;9.868;2023-08-12T09:26:13;20.80;99.90
20831;DHT22;10576;53.556;9.868;2023-08-12T09:28:39;20.80;99.90
20831;DHT22;10576;53.556;9.868;2023-08-12T09:31:05;20.80;99.90
20831;DHT22;10576;53.556;9.868;2023-08-12T09:33:30;20.80;99.90
20831;DHT22;10576;53.556;9.868;2023-08-12T09:35:56;20.80;99.90
20831;DHT22;10576;53.556;9.868;2023-08-12T09:38:25;20.70;99.90
20831;DHT22;10576;53.556;9.868;2023-08-12T09:40:52;20.70;99.90
20831;DHT22;10576;53.556;9.868;2023-08-12T09:43:23;20.70;99.90
20831;DHT22;10576;53.556;9.868;2023-08-12T09:45:49;20.70;99.90
20831;DHT22;10576;53.556;9.868;2023-08-12T09:48:16;20.70;99.90
20831;DHT22;10576;53.556;9.868;2023-08-12T09:50:42;20.70;99.90
20831;DHT22;10576;53.556;9.868;2023-08-12T09:53:09;20.70;99.90
20831;DHT22;10576;53.556;9.868;2023-08-12T09:55:35;20.70;99.90
20831;DHT22;10576;53.556;9.868;2023-08-12T09:58:03;20.70;99.90
20831;DHT22;10576;53.556;9.868;2023-08-12T10:00:31;20.70;99.90
20831;DHT22;10576;53.556;9.868;2023-08-12T10:02:58;20.80;99.90
20831;DHT22;10576;53.556;9.868;2023-08-12T10:05:32;20.90;99.90
20831;DHT22;10576;53.556;9.868;2023-08-12T10:07:59;20.90;99.90
20831;DHT22;10576;53.556;9.868;2023-08-12T10:10:29;21.00;99.90
20831;DHT22;10576;53.556;9.868;2023-08-12T10:12:56;21.00;99.90
20831;DHT22;10576;53.556;9.868;2023-08-12T10:15:22;21.00;99.90
20831;DHT22;10576;53.556;9.868;2023-08-12T10:17:48;21.00;99.90
20831;DHT22;10576;53.556;9.868;2023-08-12T10:20:22;21.00;99.90
20831;DHT22;10576;53.556;9.868;2023-08-12T10:22:49;21.00;99.90
20831;DHT22;10576;53.556;9.868;2023-08-12T10:25:18;21.10;99.90
20831;DHT22;10576;53.556;9.868;2023-08-12T10:27:44;21.10;99.90
20831;DHT22;10576;53.556;9.868;2023-08-12T10:30:10;21.10;99.90
20831;DHT22;10576;53.556;9.868;2023-08-12T10:32:39;21.10;99.90
20831;DHT22;10576;53.556;9.868;2023-08-12T10:35:05;21.20;99.90
20831;DHT22;10576;53.556;9.868;2023-08-12T10:37:32;21.20;99.90
20831;DHT22;10576;53.556;9.868;2023-08-12T10:39:59;21.20;99.90
20831;DHT22;10576;53.556;9.868;2023-08-12T10:42:46;21.20;99.90
20831;DHT22;10576;53.556;9.868;2023-08-12T10:45:14;21.20;99.90
20831;DHT22;10576;53.556;9.868;2023-08-12T10:47:49;21.10;99.90
20831;DHT22;10576;53.556;9.868;2023-08-12T10:50:21;21.10;99.90
20831;DHT22;10576;53.556;9.868;2023-08-12T10:52:48;21.10;99.90
20831;DHT22;10576;53.556;9.868;2023-08-12T10:55:27;21.10;99.90
20831;DHT22;10576;53.556;9.868;2023-08-12T10:57:54;21.10;99.90
20831;DHT22;10576;53.556;9.868;2023-08-12T11:00:29;21.20;99.90
20831;DHT22;10576;53.556;9.868;2023-08-12T11:02:56;21.10;99.90
20831;DHT22;10576;53.556;9.868;2023-08-12T11:05:23;21.10;99.90
20831;DHT22;10576;53.556;9.868;2023-08-12T11:07:58;21.20;99.90
20831;DHT22;10576;53.556;9.868;2023-08-12T11:10:25;21.30;99.90
20831;DHT22;10576;53.556;9.868;2023-08-12T11:15:19;21.50;99.90
20831;DHT22;10576;53.556;9.868;2023-08-12T11:17:47;21.60;99.90
20831;DHT22;10576;53.556;9.868;2023-08-12T11:20:13;21.50;99.90
20831;DHT22;10576;53.556;9.868;2023-08-12T11:22:40;21.50;99.90
20831;DHT22;10576;53.556;9.868;2023-08-12T11:25:09;21.40;99.90
20831;DHT22;10576;53.556;9.868;2023-08-12T11:27:46;21.30;99.90
20831;DHT22;10576;53.556;9.868;2023-08-12T11:30:17;21.20;99.90
20831;DHT22;10576;53.556;9.868;2023-08-12T11:32:44;21.10;99.90
20831;DHT22;10576;53.556;9.868;2023-08-12T11:35:10;21.10;99.90
20831;DHT22;10576;53.556;9.868;2023-08-12T11:37:40;21.10;99.90
20831;DHT22;10576;53.556;9.868;2023-08-12T11:40:08;21.00;99.90
20831;DHT22;10576;53.556;9.868;2023-08-12T11:42:35;20.90;99.90
20831;DHT22;10576;53.556;9.868;2023-08-12T11:45:02;20.90;99.90
20831;DHT22;10576;53.556;9.868;2023-08-12T11:47:27;20.80;99.90
20831;DHT22;10576;53.556;9.868;2023-08-12T11:49:53;20.80;99.90
20831;DHT22;10576;53.556;9.868;2023-08-12T11:52:19;20.70;99.90
20831;DHT22;10576;53.556;9.868;2023-08-12T11:54:45;20.60;99.90
20831;DHT22;10576;53.556;9.868;2023-08-12T11:57:11;20.50;99.90
20831;DHT22;10576;53.556;9.868;2023-08-12T11:59:37;20.50;99.90
20831;DHT22;10576;53.556;9.868;2023-08-12T12:02:03;20.40;99.90
20831;DHT22;10576;53.556;9.868;2023-08-12T12:04:33;20.40;99.90
20831;DHT22;10576;53.556;9.868;2023-08-12T12:06:59;20.40;99.90
20831;DHT22;10576;53.556;9.868;2023-08-12T12:09:25;20.40;99.90
20831;DHT22;10576;53.556;9.868;2023-08-12T12:11:55;20.30;99.90
20831;DHT22;10576;53.556;9.868;2023-08-12T12:14:21;20.30;99.90
20831;DHT22;10576;53.556;9.868;2023-08-12T12:16:48;20.30;99.90
20831;DHT22;10576;53.556;9.868;2023-08-12T12:19:19;20.30;99.90
20831;DHT22;10576;53.556;9.868;2023-08-12T12:21:46;20.40;99.90
20831;DHT22;10576;53.556;9.868;2023-08-12T12:24:12;20.40;99.90
20831;DHT22;10576;53.556;9.868;2023-08-12T12:26:38;20.40;99.90
20831;DHT22;10576;53.556;9.868;2023-08-12T12:29:05;20.50;99.90
20831;DHT22;10576;53.556;9.868;2023-08-12T12:31:34;20.50;99.90
20831;DHT22;10576;53.556;9.868;2023-08-12T12:34:01;20.60;99.90
20831;DHT22;10576;53.556;9.868;2023-08-12T12:36:27;20.60;99.90
20831;DHT22;10576;53.556;9.868;2023-08-12T12:38:53;20.50;99.90
20831;DHT22;10576;53.556;9.868;2023-08-12T12:41:18;20.70;99.90
20831;DHT22;10576;53.556;9.868;2023-08-12T12:43:44;20.70;99.90
20831;DHT22;10576;53.556;9.868;2023-08-12T12:46:10;20.70;99.90
20831;DHT22;10576;53.556;9.868;2023-08-12T12:48:36;20.60;99.90
20831;DHT22;10576;53.556;9.868;2023-08-12T12:51:01;20.60;99.90
20831;DHT22;10576;53.556;9.868;2023-08-12T12:53:27;20.70;99.90
20831;DHT22;10576;53.556;9.868;2023-08-12T12:55:53;20.60;99.90
20831;DHT22;10576;53.556;9.868;2023-08-12T12:58:18;20.60;99.90
20831;DHT22;10576;53.556;9.868;2023-08-12T13:00:44;20.60;99.90
20831;DHT22;10576;53.556;9.868;2023-08-12T13:03:10;20.50;99.90
20831;DHT22;10576;53.556;9.868;2023-08-12T13:05:35;20.90;99.90
20831;DHT22;10576;53.556;9.868;2023-08-12T13:08:01;20.40;99.90
20831;DHT22;10576;53.556;9.868;2023-08-12T13:10:26;20.40;99.90
20831;DHT22;10576;53.556;9.868;2023-08-12T13:12:52;20.50;99.90
20831;DHT22;10576;53.556;9.868;2023-08-12T13:15:18;20.50;99.90
20831;DHT22;10576;53.556;9.868;2023-08-12T13:17:43;20.60;99.90
20831;DHT22;10576;53.556;9.868;2023-08-12T13:20:09;20.70;99.90
20831;DHT22;10576;53.556;9.868;2023-08-12T13:22:35;20.70;99.90
20831;DHT22;10576;53.556;9.868;2023-08-12T13:25:01;20.60;99.90
20831;DHT22;10576;53.556;9.868;2023-08-12T13:27:27;20.60;99.90
20831;DHT22;10576;53.556;9.868;2023-08-12T13:29:53;20.60;99.90
20831;DHT22;10576;53.556;9.868;2023-08-12T13:32:18;20.80;99.90
20831;DHT22;10576;53.556;9.868;2023-08-12T13:34:44;21.00;99.90
20831;DHT22;10576;53.556;9.868;2023-08-12T13:37:11;21.00;99.90
20831;DHT22;10576;53.556;9.868;2023-08-12T13:39:37;21.10;99.90
20831;DHT22;10576;53.556;9.868;2023-08-12T13:42:03;21.10;99.90
20831;DHT22;10576;53.556;9.868;2023-08-12T13:44:28;21.20;99.90
20831;DHT22;10576;53.556;9.868;2023-08-12T13:46:54;21.10;99.90
20831;DHT22;10576;53.556;9.868;2023-08-12T13:49:19;21.10;99.90
20831;DHT22;10576;53.556;9.868;2023-08-12T13:51:45;21.10;99.90
20831;DHT22;10576;53.556;9.868;2023-08-12T13:54:11;21.10;99.90
20831;DHT22;10576;53.556;9.868;2023-08-12T13:56:36;21.10;99.90
20831;DHT22;10576;53.556;9.868;2023-08-12T13:59:02;21.00;99.90
20831;DHT22;10576;53.556;9.868;2023-08-12T14:01:28;21.00;99.90
20831;DHT22;10576;53.556;9.868;2023-08-12T14:03:53;21.00;99.90
20831;DHT22;10576;53.556;9.868;2023-08-12T14:06:19;21.10;99.90
20831;DHT22;10576;53.556;9.868;2023-08-12T14:08:44;21.10;99.90
20831;DHT22;10576;53.556;9.868;2023-08-12T14:11:10;21.20;99.90
20831;DHT22;10576;53.556;9.868;2023-08-12T14:13:36;21.20;99.90
20831;DHT22;10576;53.556;9.868;2023-08-12T14:16:01;21.30;99.90
20831;DHT22;10576;53.556;9.868;2023-08-12T14:18:27;21.20;99.90
20831;DHT22;10576;53.556;9.868;2023-08-12T14:20:52;21.20;99.90
20831;DHT22;10576;53.556;9.868;2023-08-12T14:23:18;21.20;99.90
20831;DHT22;10576;53.556;9.868;2023-08-12T14:25:44;21.10;99.90
20831;DHT22;10576;53.556;9.868;2023-08-12T14:28:09;21.10;99.90
20831;DHT22;10576;53.556;9.868;2023-08-12T14:30:36;21.10;99.90
20831;DHT22;10576;53.556;9.868;2023-08-12T14:33:02;21.00;99.90
20831;DHT22;10576;53.556;9.868;2023-08-12T14:35:28;21.00;99.90
20831;DHT22;10576;53.556;9.868;2023-08-12T14:37:53;21.00;99.90
20831;DHT22;10576;53.556;9.868;2023-08-12T14:40:19;21.10;99.90
20831;DHT22;10576;53.556;9.868;2023-08-12T14:42:45;21.00;99.90
20831;DHT22;10576;53.556;9.868;2023-08-12T14:45:11;20.90;99.90
20831;DHT22;10576;53.556;9.868;2023-08-12T14:47:36;20.90;99.90
20831;DHT22;10576;53.556;9.868;2023-08-12T14:50:02;20.90;99.90
20831;DHT22;10576;53.556;9.868;2023-08-12T14:52:29;20.90;99.90
20831;DHT22;10576;53.556;9.868;2023-08-12T14:54:55;20.90;99.90
20831;DHT22;10576;53.556;9.868;2023-08-12T14:57:21;20.90;99.90
20831;DHT22;10576;53.556;9.868;2023-08-12T14:59:46;21.00;99.90
20831;DHT22;10576;53.556;9.868;2023-08-12T15:02:16;21.00;99.90
20831;DHT22;10576;53.556;9.868;2023-08-12T15:04:43;21.00;99.90
20831;DHT22;10576;53.556;9.868;2023-08-12T15:07:08;21.00;99.90
20831;DHT22;10576;53.556;9.868;2023-08-12T15:09:34;20.90;99.90
20831;DHT22;10576;53.556;9.868;2023-08-12T15:11:59;20.90;99.90
20831;DHT22;10576;53.556;9.868;2023-08-12T15:14:25;20.90;99.90
20831;DHT22;10576;53.556;9.868;2023-08-12T15:16:51;20.90;99.90
20831;DHT22;10576;53.556;9.868;2023-08-12T15:19:17;20.90;99.90
20831;DHT22;10576;53.556;9.868;2023-08-12T15:21:42;20.80;99.90
20831;DHT22;10576;53.556;9.868;2023-08-12T15:24:08;20.80;99.90
20831;DHT22;10576;53.556;9.868;2023-08-12T15:26:34;20.80;99.90
20831;DHT22;10576;53.556;9.868;2023-08-12T15:28:59;20.70;99.90
20831;DHT22;10576;53.556;9.868;2023-08-12T15:31:25;20.80;99.90